sensor_id;sensor_type;location;lat;lon;timestamp;P1;durP1;ratioP1;P2;durP2;ratioP2
6288;SDS011;3177;49.880;8.836;2022-11-28T00:00:29;9.07;;;6.57;;
6288;SDS011;3177;49.880;8.836;2022-11-28T00:02:56;11.97;;;6.40;;
6288;SDS011;3177;49.880;8.836;2022-11-28T00:05:25;9.00;;;6.97;;
6288;SDS011;3177;49.880;8.836;2022-11-28T00:07:52;7.33;;;6.43;;
6288;SDS011;3177;49.880;8.836;2022-11-28T00:10:20;8.83;;;6.67;;
6288;SDS011;3177;49.880;8.836;2022-11-28T00:12:47;8.97;;;7.57;;
6288;SDS011;3177;49.880;8.836;2022-11-28T00:15:14;10.67;;;7.80;;
6288;SDS011;3177;49.880;8.836;2022-11-28T00:17:41;9.70;;;7.53;;
6288;SDS011;3177;49.880;8.836;2022-11-28T00:20:08;9.97;;;7.60;;
6288;SDS011;3177;49.880;8.836;2022-11-28T00:22:37;11.73;;;7.90;;
6288;SDS011;3177;49.880;8.836;2022-11-28T00:25:04;8.67;;;7.37;;
6288;SDS011;3177;49.880;8.836;2022-11-28T00:27:32;8.57;;;7.07;;
6288;SDS011;3177;49.880;8.836;2022-11-28T00:29:59;8.70;;;7.53;;
6288;SDS011;3177;49.880;8.836;2022-11-28T00:32:26;8.97;;;7.00;;
6288;SDS011;3177;49.880;8.836;2022-11-28T00:34:53;9.13;;;7.80;;
6288;SDS011;3177;49.880;8.836;2022-11-28T00:37:20;9.13;;;8.03;;
6288;SDS011;3177;49.880;8.836;2022-11-28T00:39:49;12.23;;;7.87;;
6288;SDS011;3177;49.880;8.836;2022-11-28T00:42:16;10.23;;;8.07;;
6288;SDS011;3177;49.880;8.836;2022-11-28T00:44:45;10.00;;;8.30;;
6288;SDS011;3177;49.880;8.836;2022-11-28T00:47:12;12.20;;;8.60;;
6288;SDS011;3177;49.880;8.836;2022-11-28T00:49:39;10.33;;;8.37;;
6288;SDS011;3177;49.880;8.836;2022-11-28T00:52:06;9.30;;;7.90;;
6288;SDS011;3177;49.880;8.836;2022-11-28T00:54:33;10.67;;;7.90;;
6288;SDS011;3177;49.880;8.836;2022-11-28T00:57:02;9.50;;;7.73;;
6288;SDS011;3177;49.880;8.836;2022-11-28T00:59:29;9.20;;;8.07;;
6288;SDS011;3177;49.880;8.836;2022-11-28T01:01:56;10.40;;;7.73;;
6288;SDS011;3177;49.880;8.836;2022-11-28T01:04:23;10.10;;;8.27;;
6288;SDS011;3177;49.880;8.836;2022-11-28T01:06:51;9.27;;;7.40;;
6288;SDS011;3177;49.880;8.836;2022-11-28T01:09:20;12.50;;;8.33;;
6288;SDS011;3177;49.880;8.836;2022-11-28T01:11:47;9.30;;;7.70;;
6288;SDS011;3177;49.880;8.836;2022-11-28T01:14:16;9.47;;;7.87;;
6288;SDS011;3177;49.880;8.836;2022-11-28T01:16:44;9.37;;;7.33;;
6288;SDS011;3177;49.880;8.836;2022-11-28T01:19:11;9.20;;;7.60;;
6288;SDS011;3177;49.880;8.836;2022-11-28T01:21:38;12.03;;;7.73;;
6288;SDS011;3177;49.880;8.836;2022-11-28T01:24:06;10.33;;;7.77;;
6288;SDS011;3177;49.880;8.836;2022-11-28T01:26:33;8.57;;;7.23;;
6288;SDS011;3177;49.880;8.836;2022-11-28T01:29:00;8.27;;;7.03;;
6288;SDS011;3177;49.880;8.836;2022-11-28T01:31:29;11.57;;;7.27;;
6288;SDS011;3177;49.880;8.836;2022-11-28T01:33:56;8.90;;;7.20;;
6288;SDS011;3177;49.880;8.836;2022-11-28T01:36:24;10.23;;;7.87;;
6288;SDS011;3177;49.880;8.836;2022-11-28T01:38:51;10.30;;;7.03;;
6288;SDS011;3177;49.880;8.836;2022-11-28T01:41:19;9.33;;;7.50;;
6288;SDS011;3177;49.880;8.836;2022-11-28T01:43:56;8.57;;;7.53;;
6288;SDS011;3177;49.880;8.836;2022-11-28T01:46:24;9.70;;;7.60;;
6288;SDS011;3177;49.880;8.836;2022-11-28T01:48:52;9.87;;;7.90;;
6288;SDS011;3177;49.880;8.836;2022-11-28T01:51:21;9.97;;;7.67;;
6288;SDS011;3177;49.880;8.836;2022-11-28T01:53:49;10.87;;;8.20;;
6288;SDS011;3177;49.880;8.836;2022-11-28T01:56:16;9.73;;;8.03;;
6288;SDS011;3177;49.880;8.836;2022-11-28T01:58:45;11.20;;;8.40;;
6288;SDS011;3177;49.880;8.836;2022-11-28T02:01:13;9.97;;;7.90;;
6288;SDS011;3177;49.880;8.836;2022-11-28T02:03:42;10.53;;;8.00;;
6288;SDS011;3177;49.880;8.836;2022-11-28T02:06:12;10.40;;;7.73;;
6288;SDS011;3177;49.880;8.836;2022-11-28T02:08:39;10.03;;;8.00;;
6288;SDS011;3177;49.880;8.836;2022-11-28T02:11:12;10.63;;;8.40;;
6288;SDS011;3177;49.880;8.836;2022-11-28T02:13:43;8.53;;;7.43;;
6288;SDS011;3177;49.880;8.836;2022-11-28T02:16:20;10.47;;;8.20;;
6288;SDS011;3177;49.880;8.836;2022-11-28T02:18:54;8.30;;;7.43;;
6288;SDS011;3177;49.880;8.836;2022-11-28T02:21:28;11.40;;;8.30;;
6288;SDS011;3177;49.880;8.836;2022-11-28T02:24:07;11.13;;;8.40;;
6288;SDS011;3177;49.880;8.836;2022-11-28T02:29:30;10.53;;;8.67;;
6288;SDS011;3177;49.880;8.836;2022-11-28T02:32:10;10.87;;;8.63;;
6288;SDS011;3177;49.880;8.836;2022-11-28T02:34:42;11.23;;;8.57;;
6288;SDS011;3177;49.880;8.836;2022-11-28T02:37:12;10.60;;;8.80;;
6288;SDS011;3177;49.880;8.836;2022-11-28T02:39:43;11.03;;;9.23;;
6288;SDS011;3177;49.880;8.836;2022-11-28T02:42:13;11.43;;;8.97;;
6288;SDS011;3177;49.880;8.836;2022-11-28T02:44:43;11.03;;;9.00;;
6288;SDS011;3177;49.880;8.836;2022-11-28T02:47:16;10.67;;;9.37;;
6288;SDS011;3177;49.880;8.836;2022-11-28T02:49:46;12.13;;;8.87;;
6288;SDS011;3177;49.880;8.836;2022-11-28T02:52:16;11.60;;;9.40;;
6288;SDS011;3177;49.880;8.836;2022-11-28T02:54:45;10.10;;;8.27;;
6288;SDS011;3177;49.880;8.836;2022-11-28T02:57:13;11.50;;;9.20;;
6288;SDS011;3177;49.880;8.836;2022-11-28T02:59:44;13.77;;;9.77;;
6288;SDS011;3177;49.880;8.836;2022-11-28T03:02:12;11.77;;;9.27;;
6288;SDS011;3177;49.880;8.836;2022-11-28T03:04:43;12.03;;;9.40;;
6288;SDS011;3177;49.880;8.836;2022-11-28T03:07:18;9.80;;;8.37;;
6288;SDS011;3177;49.880;8.836;2022-11-28T03:09:50;12.80;;;9.50;;
6288;SDS011;3177;49.880;8.836;2022-11-28T03:12:23;13.30;;;9.87;;
6288;SDS011;3177;49.880;8.836;2022-11-28T03:14:52;10.63;;;8.73;;
6288;SDS011;3177;49.880;8.836;2022-11-28T03:17:25;14.13;;;9.23;;
6288;SDS011;3177;49.880;8.836;2022-11-28T03:19:57;12.23;;;9.67;;
6288;SDS011;3177;49.880;8.836;2022-11-28T03:22:26;11.90;;;9.70;;
6288;SDS011;3177;49.880;8.836;2022-11-28T03:24:56;11.20;;;9.10;;
6288;SDS011;3177;49.880;8.836;2022-11-28T03:27:24;11.57;;;9.80;;
6288;SDS011;3177;49.880;8.836;2022-11-28T03:29:54;13.90;;;9.87;;
6288;SDS011;3177;49.880;8.836;2022-11-28T03:32:23;13.27;;;9.77;;
6288;SDS011;3177;49.880;8.836;2022-11-28T03:34:54;12.60;;;9.63;;
6288;SDS011;3177;49.880;8.836;2022-11-28T03:37:25;12.90;;;9.17;;
6288;SDS011;3177;49.880;8.836;2022-11-28T03:39:53;13.10;;;9.63;;
6288;SDS011;3177;49.880;8.836;2022-11-28T03:42:23;11.60;;;9.33;;
6288;SDS011;3177;49.880;8.836;2022-11-28T03:44:53;12.47;;;9.97;;
6288;SDS011;3177;49.880;8.836;2022-11-28T03:47:21;14.90;;;10.20;;
6288;SDS011;3177;49.880;8.836;2022-11-28T03:49:52;13.90;;;10.77;;
6288;SDS011;3177;49.880;8.836;2022-11-28T03:52:22;14.13;;;10.17;;
6288;SDS011;3177;49.880;8.836;2022-11-28T03:54:53;12.43;;;10.27;;
6288;SDS011;3177;49.880;8.836;2022-11-28T03:57:22;16.70;;;9.90;;
6288;SDS011;3177;49.880;8.836;2022-11-28T03:59:51;13.23;;;10.27;;
6288;SDS011;3177;49.880;8.836;2022-11-28T04:02:20;12.00;;;9.90;;
6288;SDS011;3177;49.880;8.836;2022-11-28T04:04:50;12.40;;;9.40;;
6288;SDS011;3177;49.880;8.836;2022-11-28T04:07:21;14.20;;;9.80;;
6288;SDS011;3177;49.880;8.836;2022-11-28T04:09:49;13.37;;;10.63;;
6288;SDS011;3177;49.880;8.836;2022-11-28T04:12:20;11.67;;;9.90;;
6288;SDS011;3177;49.880;8.836;2022-11-28T04:14:50;12.77;;;9.77;;
6288;SDS011;3177;49.880;8.836;2022-11-28T04:17:21;13.40;;;10.17;;
6288;SDS011;3177;49.880;8.836;2022-11-28T04:19:49;12.43;;;10.07;;
6288;SDS011;3177;49.880;8.836;2022-11-28T04:22:18;12.70;;;10.47;;
6288;SDS011;3177;49.880;8.836;2022-11-28T04:24:47;13.13;;;9.97;;
6288;SDS011;3177;49.880;8.836;2022-11-28T04:27:18;13.23;;;10.63;;
6288;SDS011;3177;49.880;8.836;2022-11-28T04:29:49;13.03;;;10.20;;
6288;SDS011;3177;49.880;8.836;2022-11-28T04:32:17;14.30;;;10.37;;
6288;SDS011;3177;49.880;8.836;2022-11-28T04:34:48;13.33;;;10.57;;
6288;SDS011;3177;49.880;8.836;2022-11-28T04:37:16;11.23;;;7.93;;
6288;SDS011;3177;49.880;8.836;2022-11-28T04:39:44;13.60;;;10.77;;
6288;SDS011;3177;49.880;8.836;2022-11-28T04:42:13;12.57;;;9.47;;
6288;SDS011;3177;49.880;8.836;2022-11-28T04:44:43;11.97;;;9.67;;
6288;SDS011;3177;49.880;8.836;2022-11-28T04:47:12;12.37;;;9.87;;
6288;SDS011;3177;49.880;8.836;2022-11-28T04:49:39;13.23;;;9.93;;
6288;SDS011;3177;49.880;8.836;2022-11-28T04:52:07;14.77;;;10.73;;
6288;SDS011;3177;49.880;8.836;2022-11-28T04:54:38;14.83;;;10.27;;
6288;SDS011;3177;49.880;8.836;2022-11-28T04:57:08;14.43;;;10.43;;
6288;SDS011;3177;49.880;8.836;2022-11-28T04:59:37;13.10;;;10.70;;
6288;SDS011;3177;49.880;8.836;2022-11-28T05:02:06;14.23;;;9.90;;
6288;SDS011;3177;49.880;8.836;2022-11-28T05:04:35;12.93;;;9.57;;
6288;SDS011;3177;49.880;8.836;2022-11-28T05:07:04;14.63;;;9.67;;
6288;SDS011;3177;49.880;8.836;2022-11-28T05:09:31;13.13;;;9.80;;
6288;SDS011;3177;49.880;8.836;2022-11-28T05:11:58;11.20;;;9.27;;
6288;SDS011;3177;49.880;8.836;2022-11-28T05:14:25;13.83;;;10.63;;
6288;SDS011;3177;49.880;8.836;2022-11-28T05:16:53;13.90;;;9.90;;
6288;SDS011;3177;49.880;8.836;2022-11-28T05:19:20;11.53;;;10.33;;
6288;SDS011;3177;49.880;8.836;2022-11-28T05:21:48;12.73;;;10.20;;
6288;SDS011;3177;49.880;8.836;2022-11-28T05:24:17;15.20;;;10.87;;
6288;SDS011;3177;49.880;8.836;2022-11-28T05:26:44;12.20;;;10.07;;
6288;SDS011;3177;49.880;8.836;2022-11-28T05:29:11;15.50;;;11.47;;
6288;SDS011;3177;49.880;8.836;2022-11-28T05:31:38;12.87;;;9.90;;
6288;SDS011;3177;49.880;8.836;2022-11-28T05:34:06;14.20;;;11.10;;
6288;SDS011;3177;49.880;8.836;2022-11-28T05:36:33;13.13;;;10.77;;
6288;SDS011;3177;49.880;8.836;2022-11-28T05:39:01;14.77;;;10.40;;
6288;SDS011;3177;49.880;8.836;2022-11-28T05:41:29;14.40;;;11.43;;
6288;SDS011;3177;49.880;8.836;2022-11-28T05:43:56;15.77;;;11.67;;
6288;SDS011;3177;49.880;8.836;2022-11-28T05:46:25;13.60;;;10.90;;
6288;SDS011;3177;49.880;8.836;2022-11-28T05:48:53;14.70;;;10.53;;
6288;SDS011;3177;49.880;8.836;2022-11-28T05:51:20;14.50;;;10.73;;
6288;SDS011;3177;49.880;8.836;2022-11-28T05:53:47;14.80;;;11.10;;
6288;SDS011;3177;49.880;8.836;2022-11-28T05:56:16;16.60;;;10.37;;
6288;SDS011;3177;49.880;8.836;2022-11-28T05:58:43;12.50;;;9.83;;
6288;SDS011;3177;49.880;8.836;2022-11-28T06:01:11;14.60;;;10.67;;
6288;SDS011;3177;49.880;8.836;2022-11-28T06:03:38;15.27;;;10.60;;
6288;SDS011;3177;49.880;8.836;2022-11-28T06:06:08;15.13;;;10.80;;
6288;SDS011;3177;49.880;8.836;2022-11-28T06:08:35;13.33;;;9.83;;
6288;SDS011;3177;49.880;8.836;2022-11-28T06:11:02;13.27;;;10.20;;
6288;SDS011;3177;49.880;8.836;2022-11-28T06:13:31;12.27;;;9.23;;
6288;SDS011;3177;49.880;8.836;2022-11-28T06:15:58;16.87;;;10.20;;
6288;SDS011;3177;49.880;8.836;2022-11-28T06:18:25;18.80;;;11.00;;
6288;SDS011;3177;49.880;8.836;2022-11-28T06:20:52;25.83;;;11.43;;
6288;SDS011;3177;49.880;8.836;2022-11-28T06:23:19;15.20;;;11.50;;
6288;SDS011;3177;49.880;8.836;2022-11-28T06:25:46;14.07;;;11.13;;
6288;SDS011;3177;49.880;8.836;2022-11-28T06:28:13;14.97;;;11.07;;
6288;SDS011;3177;49.880;8.836;2022-11-28T06:30:42;13.87;;;10.90;;
6288;SDS011;3177;49.880;8.836;2022-11-28T06:33:10;15.87;;;11.40;;
6288;SDS011;3177;49.880;8.836;2022-11-28T06:35:37;13.43;;;9.83;;
6288;SDS011;3177;49.880;8.836;2022-11-28T06:38:04;18.00;;;11.13;;
6288;SDS011;3177;49.880;8.836;2022-11-28T06:40:31;16.93;;;11.07;;
6288;SDS011;3177;49.880;8.836;2022-11-28T06:42:58;16.50;;;10.87;;
6288;SDS011;3177;49.880;8.836;2022-11-28T06:45:25;12.20;;;10.00;;
6288;SDS011;3177;49.880;8.836;2022-11-28T06:47:54;13.97;;;10.10;;
6288;SDS011;3177;49.880;8.836;2022-11-28T06:50:21;14.13;;;10.47;;
6288;SDS011;3177;49.880;8.836;2022-11-28T06:52:48;16.23;;;10.40;;
6288;SDS011;3177;49.880;8.836;2022-11-28T06:55:15;13.40;;;11.07;;
6288;SDS011;3177;49.880;8.836;2022-11-28T06:57:43;15.93;;;11.70;;
6288;SDS011;3177;49.880;8.836;2022-11-28T07:00:11;12.43;;;9.70;;
6288;SDS011;3177;49.880;8.836;2022-11-28T07:02:38;14.63;;;10.83;;
6288;SDS011;3177;49.880;8.836;2022-11-28T07:05:08;12.53;;;10.13;;
6288;SDS011;3177;49.880;8.836;2022-11-28T07:07:35;15.57;;;10.47;;
6288;SDS011;3177;49.880;8.836;2022-11-28T07:10:03;14.63;;;10.63;;
6288;SDS011;3177;49.880;8.836;2022-11-28T07:12:30;14.03;;;10.00;;
6288;SDS011;3177;49.880;8.836;2022-11-28T07:14:57;15.73;;;11.00;;
6288;SDS011;3177;49.880;8.836;2022-11-28T07:17:24;14.20;;;10.53;;
6288;SDS011;3177;49.880;8.836;2022-11-28T07:19:51;16.10;;;11.37;;
6288;SDS011;3177;49.880;8.836;2022-11-28T07:22:19;14.40;;;10.07;;
6288;SDS011;3177;49.880;8.836;2022-11-28T07:24:47;17.93;;;11.13;;
6288;SDS011;3177;49.880;8.836;2022-11-28T07:27:14;13.90;;;11.00;;
6288;SDS011;3177;49.880;8.836;2022-11-28T07:29:41;15.40;;;10.77;;
6288;SDS011;3177;49.880;8.836;2022-11-28T07:32:08;14.13;;;11.40;;
6288;SDS011;3177;49.880;8.836;2022-11-28T07:34:35;14.13;;;10.67;;
6288;SDS011;3177;49.880;8.836;2022-11-28T07:37:02;14.13;;;10.70;;
6288;SDS011;3177;49.880;8.836;2022-11-28T07:39:30;15.97;;;11.43;;
6288;SDS011;3177;49.880;8.836;2022-11-28T07:41:58;15.20;;;10.97;;
6288;SDS011;3177;49.880;8.836;2022-11-28T07:44:25;12.53;;;9.97;;
6288;SDS011;3177;49.880;8.836;2022-11-28T07:46:52;15.57;;;10.60;;
6288;SDS011;3177;49.880;8.836;2022-11-28T07:49:19;16.27;;;12.17;;
6288;SDS011;3177;49.880;8.836;2022-11-28T07:51:46;17.60;;;11.33;;
6288;SDS011;3177;49.880;8.836;2022-11-28T07:54:14;18.00;;;11.37;;
6288;SDS011;3177;49.880;8.836;2022-11-28T07:56:42;15.30;;;10.30;;
6288;SDS011;3177;49.880;8.836;2022-11-28T07:59:09;17.80;;;11.07;;
6288;SDS011;3177;49.880;8.836;2022-11-28T08:01:37;17.67;;;13.17;;
6288;SDS011;3177;49.880;8.836;2022-11-28T08:04:06;15.30;;;11.40;;
6288;SDS011;3177;49.880;8.836;2022-11-28T08:06:34;15.03;;;10.93;;
6288;SDS011;3177;49.880;8.836;2022-11-28T08:09:03;17.67;;;11.43;;
6288;SDS011;3177;49.880;8.836;2022-11-28T08:11:31;14.90;;;10.83;;
6288;SDS011;3177;49.880;8.836;2022-11-28T08:14:00;13.57;;;10.73;;
6288;SDS011;3177;49.880;8.836;2022-11-28T08:16:27;16.60;;;11.43;;
6288;SDS011;3177;49.880;8.836;2022-11-28T08:18:55;15.33;;;11.40;;
6288;SDS011;3177;49.880;8.836;2022-11-28T08:21:23;15.50;;;11.43;;
6288;SDS011;3177;49.880;8.836;2022-11-28T08:23:51;16.43;;;11.87;;
6288;SDS011;3177;49.880;8.836;2022-11-28T08:26:19;14.47;;;11.10;;
6288;SDS011;3177;49.880;8.836;2022-11-28T08:28:46;15.17;;;10.47;;
6288;SDS011;3177;49.880;8.836;2022-11-28T08:31:17;17.00;;;11.33;;
6288;SDS011;3177;49.880;8.836;2022-11-28T08:33:45;17.83;;;10.87;;
6288;SDS011;3177;49.880;8.836;2022-11-28T08:36:14;15.53;;;11.93;;
6288;SDS011;3177;49.880;8.836;2022-11-28T08:38:41;14.40;;;10.73;;
6288;SDS011;3177;49.880;8.836;2022-11-28T08:41:10;16.87;;;11.70;;
6288;SDS011;3177;49.880;8.836;2022-11-28T08:43:38;17.80;;;11.67;;
6288;SDS011;3177;49.880;8.836;2022-11-28T08:46:05;17.97;;;12.50;;
6288;SDS011;3177;49.880;8.836;2022-11-28T08:48:36;16.77;;;12.17;;
6288;SDS011;3177;49.880;8.836;2022-11-28T08:51:10;15.17;;;10.10;;
6288;SDS011;3177;49.880;8.836;2022-11-28T08:53:38;14.77;;;11.00;;
6288;SDS011;3177;49.880;8.836;2022-11-28T08:56:05;15.33;;;11.47;;
6288;SDS011;3177;49.880;8.836;2022-11-28T08:58:34;17.70;;;12.63;;
6288;SDS011;3177;49.880;8.836;2022-11-28T09:01:01;15.17;;;11.37;;
6288;SDS011;3177;49.880;8.836;2022-11-28T09:03:28;16.80;;;11.47;;
6288;SDS011;3177;49.880;8.836;2022-11-28T09:05:59;16.53;;;11.70;;
6288;SDS011;3177;49.880;8.836;2022-11-28T09:08:27;15.40;;;11.30;;
6288;SDS011;3177;49.880;8.836;2022-11-28T09:10:54;15.23;;;11.23;;
6288;SDS011;3177;49.880;8.836;2022-11-28T09:13:21;15.57;;;11.47;;
6288;SDS011;3177;49.880;8.836;2022-11-28T09:15:48;18.77;;;12.00;;
6288;SDS011;3177;49.880;8.836;2022-11-28T09:18:15;19.17;;;11.63;;
6288;SDS011;3177;49.880;8.836;2022-11-28T09:20:43;14.17;;;11.07;;
6288;SDS011;3177;49.880;8.836;2022-11-28T09:23:11;14.07;;;11.10;;
6288;SDS011;3177;49.880;8.836;2022-11-28T09:25:39;13.97;;;10.90;;
6288;SDS011;3177;49.880;8.836;2022-11-28T09:28:06;13.67;;;11.27;;
6288;SDS011;3177;49.880;8.836;2022-11-28T09:30:33;14.57;;;11.00;;
6288;SDS011;3177;49.880;8.836;2022-11-28T09:33:00;17.57;;;11.00;;
6288;SDS011;3177;49.880;8.836;2022-11-28T09:35:28;18.47;;;11.07;;
6288;SDS011;3177;49.880;8.836;2022-11-28T09:37:56;16.37;;;11.10;;
6288;SDS011;3177;49.880;8.836;2022-11-28T09:40:26;15.13;;;11.53;;
6288;SDS011;3177;49.880;8.836;2022-11-28T09:42:54;16.63;;;10.73;;
6288;SDS011;3177;49.880;8.836;2022-11-28T09:45:22;13.13;;;10.40;;
6288;SDS011;3177;49.880;8.836;2022-11-28T09:47:51;14.50;;;10.63;;
6288;SDS011;3177;49.880;8.836;2022-11-28T09:50:20;12.57;;;10.60;;
6288;SDS011;3177;49.880;8.836;2022-11-28T09:52:48;16.57;;;10.40;;
6288;SDS011;3177;49.880;8.836;2022-11-28T09:55:19;13.07;;;10.50;;
6288;SDS011;3177;49.880;8.836;2022-11-28T09:57:52;14.57;;;10.27;;
6288;SDS011;3177;49.880;8.836;2022-11-28T10:00:20;12.47;;;10.03;;
6288;SDS011;3177;49.880;8.836;2022-11-28T10:02:51;12.93;;;10.13;;
6288;SDS011;3177;49.880;8.836;2022-11-28T10:05:23;15.03;;;10.80;;
6288;SDS011;3177;49.880;8.836;2022-11-28T10:07:55;15.57;;;10.87;;
6288;SDS011;3177;49.880;8.836;2022-11-28T10:10:28;12.33;;;9.80;;
6288;SDS011;3177;49.880;8.836;2022-11-28T10:13:01;13.63;;;9.80;;
6288;SDS011;3177;49.880;8.836;2022-11-28T10:15:35;12.73;;;9.47;;
6288;SDS011;3177;49.880;8.836;2022-11-28T10:18:12;12.73;;;9.13;;
6288;SDS011;3177;49.880;8.836;2022-11-28T10:20:42;14.13;;;9.20;;
6288;SDS011;3177;49.880;8.836;2022-11-28T10:23:13;11.57;;;9.33;;
6288;SDS011;3177;49.880;8.836;2022-11-28T10:25:42;11.27;;;9.40;;
6288;SDS011;3177;49.880;8.836;2022-11-28T10:28:13;13.07;;;8.97;;
6288;SDS011;3177;49.880;8.836;2022-11-28T10:30:41;13.50;;;8.83;;
6288;SDS011;3177;49.880;8.836;2022-11-28T10:33:12;12.47;;;9.73;;
6288;SDS011;3177;49.880;8.836;2022-11-28T10:35:45;13.23;;;9.20;;
6288;SDS011;3177;49.880;8.836;2022-11-28T10:38:13;11.93;;;9.30;;
6288;SDS011;3177;49.880;8.836;2022-11-28T10:40:42;13.20;;;8.70;;
6288;SDS011;3177;49.880;8.836;2022-11-28T10:43:23;10.97;;;8.47;;
6288;SDS011;3177;49.880;8.836;2022-11-28T10:45:53;11.40;;;8.67;;
6288;SDS011;3177;49.880;8.836;2022-11-28T10:48:28;11.67;;;9.13;;
6288;SDS011;3177;49.880;8.836;2022-11-28T10:51:00;9.33;;;8.00;;
6288;SDS011;3177;49.880;8.836;2022-11-28T10:53:31;11.17;;;8.07;;
6288;SDS011;3177;49.880;8.836;2022-11-28T10:56:04;12.47;;;8.73;;
6288;SDS011;3177;49.880;8.836;2022-11-28T10:58:38;11.13;;;8.30;;
6288;SDS011;3177;49.880;8.836;2022-11-28T11:01:08;9.87;;;7.90;;
6288;SDS011;3177;49.880;8.836;2022-11-28T11:03:35;11.90;;;8.53;;
6288;SDS011;3177;49.880;8.836;2022-11-28T11:06:04;9.83;;;8.03;;
6288;SDS011;3177;49.880;8.836;2022-11-28T11:08:33;9.10;;;7.70;;
6288;SDS011;3177;49.880;8.836;2022-11-28T11:11:01;8.53;;;7.57;;
6288;SDS011;3177;49.880;8.836;2022-11-28T11:13:30;9.43;;;7.90;;
6288;SDS011;3177;49.880;8.836;2022-11-28T11:15:59;9.57;;;7.70;;
6288;SDS011;3177;49.880;8.836;2022-11-28T11:18:28;9.73;;;7.83;;
6288;SDS011;3177;49.880;8.836;2022-11-28T11:21:05;8.43;;;7.20;;
6288;SDS011;3177;49.880;8.836;2022-11-28T11:23:32;9.13;;;7.50;;
6288;SDS011;3177;49.880;8.836;2022-11-28T11:26:00;9.30;;;7.43;;
6288;SDS011;3177;49.880;8.836;2022-11-28T11:28:38;12.77;;;7.93;;
6288;SDS011;3177;49.880;8.836;2022-11-28T11:31:14;10.03;;;8.20;;
6288;SDS011;3177;49.880;8.836;2022-11-28T11:33:42;9.80;;;7.63;;
6288;SDS011;3177;49.880;8.836;2022-11-28T11:36:18;11.40;;;7.20;;
6288;SDS011;3177;49.880;8.836;2022-11-28T11:38:46;12.00;;;7.37;;
6288;SDS011;3177;49.880;8.836;2022-11-28T11:41:18;8.50;;;7.43;;
6288;SDS011;3177;49.880;8.836;2022-11-28T11:43:46;11.50;;;8.60;;
6288;SDS011;3177;49.880;8.836;2022-11-28T11:46:15;9.47;;;7.67;;
6288;SDS011;3177;49.880;8.836;2022-11-28T11:48:43;9.70;;;8.10;;
6288;SDS011;3177;49.880;8.836;2022-11-28T11:51:19;9.53;;;7.80;;
6288;SDS011;3177;49.880;8.836;2022-11-28T11:53:47;11.83;;;8.50;;
6288;SDS011;3177;49.880;8.836;2022-11-28T11:56:14;11.33;;;9.13;;
6288;SDS011;3177;49.880;8.836;2022-11-28T11:58:42;16.83;;;12.57;;
6288;SDS011;3177;49.880;8.836;2022-11-28T12:01:10;14.63;;;11.63;;
6288;SDS011;3177;49.880;8.836;2022-11-28T12:03:40;11.17;;;9.03;;
6288;SDS011;3177;49.880;8.836;2022-11-28T12:06:10;11.57;;;8.80;;
6288;SDS011;3177;49.880;8.836;2022-11-28T12:08:38;12.23;;;9.60;;
6288;SDS011;3177;49.880;8.836;2022-11-28T12:11:09;15.30;;;9.70;;
6288;SDS011;3177;49.880;8.836;2022-11-28T12:13:38;14.30;;;10.20;;
6288;SDS011;3177;49.880;8.836;2022-11-28T12:16:07;14.50;;;9.47;;
6288;SDS011;3177;49.880;8.836;2022-11-28T12:18:42;11.40;;;8.90;;
6288;SDS011;3177;49.880;8.836;2022-11-28T12:21:12;13.27;;;9.07;;
6288;SDS011;3177;49.880;8.836;2022-11-28T12:23:46;11.73;;;8.83;;
6288;SDS011;3177;49.880;8.836;2022-11-28T12:26:16;11.77;;;9.10;;
6288;SDS011;3177;49.880;8.836;2022-11-28T12:28:50;12.90;;;9.13;;
6288;SDS011;3177;49.880;8.836;2022-11-28T12:31:20;11.20;;;7.60;;
6288;SDS011;3177;49.880;8.836;2022-11-28T12:33:57;9.93;;;8.37;;
6288;SDS011;3177;49.880;8.836;2022-11-28T12:36:31;8.90;;;7.97;;
6288;SDS011;3177;49.880;8.836;2022-11-28T12:39:07;9.53;;;7.90;;
6288;SDS011;3177;49.880;8.836;2022-11-28T12:41:44;10.60;;;8.20;;
6288;SDS011;3177;49.880;8.836;2022-11-28T12:44:17;9.90;;;7.63;;
6288;SDS011;3177;49.880;8.836;2022-11-28T12:46:46;12.40;;;8.03;;
6288;SDS011;3177;49.880;8.836;2022-11-28T12:49:19;10.90;;;7.53;;
6288;SDS011;3177;49.880;8.836;2022-11-28T12:51:57;10.47;;;7.50;;
6288;SDS011;3177;49.880;8.836;2022-11-28T12:57:10;10.70;;;8.20;;
6288;SDS011;3177;49.880;8.836;2022-11-28T12:59:41;9.03;;;8.07;;
6288;SDS011;3177;49.880;8.836;2022-11-28T13:02:19;9.37;;;7.60;;
6288;SDS011;3177;49.880;8.836;2022-11-28T13:04:51;9.93;;;7.60;;
6288;SDS011;3177;49.880;8.836;2022-11-28T13:07:23;8.50;;;7.27;;
6288;SDS011;3177;49.880;8.836;2022-11-28T13:09:55;8.60;;;7.17;;
6288;SDS011;3177;49.880;8.836;2022-11-28T13:12:27;9.43;;;7.03;;
6288;SDS011;3177;49.880;8.836;2022-11-28T13:14:55;9.10;;;7.03;;
6288;SDS011;3177;49.880;8.836;2022-11-28T13:17:26;8.67;;;7.17;;
6288;SDS011;3177;49.880;8.836;2022-11-28T13:20:02;11.73;;;7.87;;
6288;SDS011;3177;49.880;8.836;2022-11-28T13:22:46;9.57;;;7.77;;
6288;SDS011;3177;49.880;8.836;2022-11-28T13:25:18;10.23;;;8.33;;
6288;SDS011;3177;49.880;8.836;2022-11-28T13:27:49;14.53;;;9.33;;
6288;SDS011;3177;49.880;8.836;2022-11-28T13:30:19;12.53;;;9.13;;
6288;SDS011;3177;49.880;8.836;2022-11-28T13:32:47;14.83;;;10.10;;
6288;SDS011;3177;49.880;8.836;2022-11-28T13:35:18;14.13;;;10.87;;
6288;SDS011;3177;49.880;8.836;2022-11-28T13:37:48;12.17;;;10.53;;
6288;SDS011;3177;49.880;8.836;2022-11-28T13:40:18;13.20;;;10.43;;
6288;SDS011;3177;49.880;8.836;2022-11-28T13:42:51;14.70;;;10.87;;
6288;SDS011;3177;49.880;8.836;2022-11-28T13:45:22;13.33;;;10.00;;
6288;SDS011;3177;49.880;8.836;2022-11-28T13:47:49;13.17;;;10.73;;
6288;SDS011;3177;49.880;8.836;2022-11-28T13:50:34;15.03;;;10.53;;
6288;SDS011;3177;49.880;8.836;2022-11-28T13:53:13;14.90;;;11.13;;
6288;SDS011;3177;49.880;8.836;2022-11-28T13:55:45;12.77;;;10.03;;
6288;SDS011;3177;49.880;8.836;2022-11-28T13:58:16;13.90;;;10.43;;
6288;SDS011;3177;49.880;8.836;2022-11-28T14:00:57;16.07;;;11.07;;
6288;SDS011;3177;49.880;8.836;2022-11-28T14:03:25;16.63;;;11.60;;
6288;SDS011;3177;49.880;8.836;2022-11-28T14:05:54;12.33;;;10.27;;
6288;SDS011;3177;49.880;8.836;2022-11-28T14:08:25;13.03;;;10.20;;
6288;SDS011;3177;49.880;8.836;2022-11-28T14:11:02;12.57;;;10.00;;
6288;SDS011;3177;49.880;8.836;2022-11-28T14:13:35;11.37;;;9.47;;
6288;SDS011;3177;49.880;8.836;2022-11-28T14:16:11;14.90;;;9.97;;
6288;SDS011;3177;49.880;8.836;2022-11-28T14:18:46;12.30;;;10.43;;
6288;SDS011;3177;49.880;8.836;2022-11-28T14:21:20;15.63;;;10.90;;
6288;SDS011;3177;49.880;8.836;2022-11-28T14:23:51;12.87;;;9.90;;
6288;SDS011;3177;49.880;8.836;2022-11-28T14:26:21;14.20;;;10.70;;
6288;SDS011;3177;49.880;8.836;2022-11-28T14:28:50;18.10;;;11.63;;
6288;SDS011;3177;49.880;8.836;2022-11-28T14:31:20;14.57;;;10.60;;
6288;SDS011;3177;49.880;8.836;2022-11-28T14:33:51;13.07;;;10.80;;
6288;SDS011;3177;49.880;8.836;2022-11-28T14:36:24;17.37;;;11.43;;
6288;SDS011;3177;49.880;8.836;2022-11-28T14:38:59;13.77;;;10.93;;
6288;SDS011;3177;49.880;8.836;2022-11-28T14:41:26;15.20;;;11.43;;
6288;SDS011;3177;49.880;8.836;2022-11-28T14:43:54;14.57;;;11.23;;
6288;SDS011;3177;49.880;8.836;2022-11-28T14:46:25;16.83;;;11.77;;
6288;SDS011;3177;49.880;8.836;2022-11-28T14:54:27;18.60;;;12.20;;
6288;SDS011;3177;49.880;8.836;2022-11-28T14:56:54;15.13;;;11.13;;
6288;SDS011;3177;49.880;8.836;2022-11-28T14:59:24;19.83;;;12.97;;
6288;SDS011;3177;49.880;8.836;2022-11-28T15:01:54;17.70;;;12.83;;
6288;SDS011;3177;49.880;8.836;2022-11-28T15:04:32;18.03;;;12.40;;
6288;SDS011;3177;49.880;8.836;2022-11-28T15:07:02;16.30;;;12.53;;
6288;SDS011;3177;49.880;8.836;2022-11-28T15:09:31;17.17;;;11.97;;
6288;SDS011;3177;49.880;8.836;2022-11-28T15:12:05;17.07;;;12.07;;
6288;SDS011;3177;49.880;8.836;2022-11-28T15:14:35;18.07;;;12.20;;
6288;SDS011;3177;49.880;8.836;2022-11-28T15:17:03;18.70;;;12.40;;
6288;SDS011;3177;49.880;8.836;2022-11-28T15:19:31;16.57;;;12.47;;
6288;SDS011;3177;49.880;8.836;2022-11-28T15:21:59;17.23;;;12.00;;